createdAt,value
2022-11-08T00:01:03.675Z,53.70
2022-11-08T00:03:38.507Z,53.70
2022-11-08T00:06:31.926Z,53.50
2022-11-08T00:09:25.594Z,53.60
2022-11-08T00:12:20.665Z,53.60
2022-11-08T00:14:56.175Z,53.60
2022-11-08T00:17:32.212Z,53.60
2022-11-08T00:20:08.951Z,53.50
2022-11-08T00:22:43.792Z,53.40
2022-11-08T00:25:18.659Z,53.30
2022-11-08T00:27:53.615Z,53.50
2022-11-08T00:30:28.483Z,53.90
2022-11-08T00:33:03.300Z,54.20
2022-11-08T00:35:38.180Z,54.10
2022-11-08T00:38:13.055Z,54.30
2022-11-08T00:40:47.882Z,54.30
2022-11-08T00:43:22.739Z,54.30
2022-11-08T00:45:57.624Z,54.40
2022-11-08T00:48:32.483Z,54.50
2022-11-08T00:51:10.561Z,54.70
2022-11-08T00:53:45.422Z,54.80
2022-11-08T00:56:20.421Z,55.10
2022-11-08T00:58:55.387Z,55.10
2022-11-08T01:01:30.366Z,56.10
2022-11-08T01:04:05.487Z,56.20
2022-11-08T01:06:41.172Z,56.40
2022-11-08T01:09:16.148Z,56.60
2022-11-08T01:11:51.054Z,56.90
2022-11-08T01:14:25.901Z,57.20
2022-11-08T01:17:00.866Z,57.20
2022-11-08T01:19:35.727Z,57.20
2022-11-08T01:22:10.587Z,57.30
2022-11-08T01:24:45.489Z,57.40
2022-11-08T01:27:20.337Z,57.50
2022-11-08T01:29:55.190Z,58.00
2022-11-08T01:32:30.022Z,58.50
2022-11-08T01:35:05.477Z,58.80
2022-11-08T01:37:40.386Z,59.20
2022-11-08T01:40:15.273Z,59.80
2022-11-08T01:42:50.143Z,60.20
2022-11-08T01:46:21.239Z,60.00
2022-11-08T01:49:13.487Z,59.90
2022-11-08T01:52:08.982Z,59.80
2022-11-08T01:55:14.150Z,60.00
2022-11-08T01:57:55.933Z,60.10
2022-11-08T02:00:31.093Z,60.20
2022-11-08T02:03:10.792Z,60.40
2022-11-08T02:05:46.580Z,60.70
2022-11-08T02:08:41.646Z,61.00
2022-11-08T02:11:18.380Z,61.40
2022-11-08T02:13:54.243Z,61.90
2022-11-08T02:16:29.219Z,61.80
2022-11-08T02:19:09.216Z,62.00
2022-11-08T02:21:54.886Z,62.10
2022-11-08T02:24:29.805Z,62.20
2022-11-08T02:27:04.991Z,62.30
2022-11-08T02:29:41.028Z,62.20
2022-11-08T02:32:15.948Z,62.10
2022-11-08T02:34:58.333Z,62.10
2022-11-08T02:37:33.367Z,62.70
2022-11-08T02:40:09.113Z,62.90
2022-11-08T02:42:44.117Z,63.20
2022-11-08T02:45:19.084Z,63.30
2022-11-08T02:47:53.904Z,63.40
2022-11-08T02:50:28.826Z,63.50
2022-11-08T02:53:03.873Z,63.70
2022-11-08T02:55:38.927Z,64.00
2022-11-08T02:58:14.014Z,64.40
2022-11-08T03:00:48.875Z,64.30
2022-11-08T03:03:23.787Z,64.70
2022-11-08T03:05:58.694Z,64.80
2022-11-08T03:08:33.603Z,64.60
2022-11-08T03:11:08.531Z,64.40
2022-11-08T03:13:43.445Z,64.30
2022-11-08T03:16:18.340Z,64.30
2022-11-08T03:18:53.198Z,64.10
2022-11-08T03:21:28.137Z,64.20
2022-11-08T03:24:03.408Z,64.40
2022-11-08T03:26:38.322Z,64.40
2022-11-08T03:29:13.204Z,64.60
2022-11-08T03:31:48.079Z,64.70
2022-11-08T03:34:23.017Z,64.60
2022-11-08T03:36:57.909Z,64.70
2022-11-08T03:39:32.785Z,64.80
2022-11-08T03:42:08.056Z,65.00
2022-11-08T03:44:42.907Z,65.20
2022-11-08T03:47:17.755Z,64.90
2022-11-08T03:49:52.644Z,64.00
2022-11-08T03:52:27.487Z,64.60
2022-11-08T03:55:02.344Z,64.40
2022-11-08T03:57:39.563Z,64.20
2022-11-08T04:00:18.315Z,64.10
2022-11-08T04:02:55.082Z,63.90
2022-11-08T04:05:32.406Z,64.40
2022-11-08T04:08:07.693Z,65.00
2022-11-08T04:10:42.564Z,65.60
2022-11-08T04:13:35.735Z,65.60
2022-11-08T04:16:15.196Z,65.90
2022-11-08T04:19:10.998Z,65.70
2022-11-08T04:21:48.683Z,65.50
2022-11-08T04:24:23.552Z,65.10
2022-11-08T04:26:58.450Z,65.00
2022-11-08T04:29:33.314Z,64.70
2022-11-08T04:32:08.226Z,64.60
2022-11-08T04:34:43.086Z,64.70
2022-11-08T04:37:17.967Z,65.00
2022-11-08T04:39:52.842Z,65.60
2022-11-08T04:42:27.696Z,66.00
2022-11-08T04:45:02.606Z,66.60
2022-11-08T04:47:41.093Z,66.80
2022-11-08T04:50:18.100Z,66.90
2022-11-08T04:52:55.194Z,67.10
2022-11-08T04:55:30.143Z,67.40
2022-11-08T04:58:05.046Z,67.60
2022-11-08T05:00:39.904Z,67.50
2022-11-08T05:03:14.754Z,67.50
2022-11-08T05:05:49.601Z,67.50
2022-11-08T05:08:24.499Z,67.50
2022-11-08T05:11:05.568Z,67.40
2022-11-08T05:13:41.225Z,67.20
2022-11-08T05:16:29.314Z,67.20
2022-11-08T05:19:06.936Z,67.10
2022-11-08T05:22:02.467Z,66.80
2022-11-08T05:24:37.401Z,66.60
2022-11-08T05:27:12.363Z,66.70
2022-11-08T05:29:48.319Z,66.00
2022-11-08T05:32:23.387Z,66.30
2022-11-08T05:34:58.370Z,65.70
2022-11-08T05:37:33.292Z,65.90
2022-11-08T05:40:09.436Z,66.10
2022-11-08T05:42:44.337Z,66.20
2022-11-08T05:45:19.257Z,66.30
2022-11-08T05:47:54.766Z,66.60
2022-11-08T05:50:35.375Z,66.80
2022-11-08T05:53:19.788Z,67.00
2022-11-08T05:56:03.227Z,66.70
2022-11-08T05:58:38.295Z,67.20
2022-11-08T06:01:16.362Z,66.50
2022-11-08T06:03:51.369Z,66.60
2022-11-08T06:06:26.539Z,66.40
2022-11-08T06:09:01.424Z,66.20
2022-11-08T06:11:36.519Z,66.50
2022-11-08T06:14:11.601Z,66.10
2022-11-08T06:16:46.595Z,65.80
2022-11-08T06:19:21.642Z,65.90
2022-11-08T06:21:56.552Z,65.90
2022-11-08T06:24:31.475Z,65.70
2022-11-08T06:27:06.702Z,65.60
2022-11-08T06:29:42.531Z,65.30
2022-11-08T06:32:17.695Z,65.30
2022-11-08T06:34:52.611Z,65.00
2022-11-08T06:37:27.584Z,65.20
2022-11-08T06:40:02.502Z,65.00
2022-11-08T06:42:37.917Z,64.70
2022-11-08T06:45:12.878Z,64.70
2022-11-08T06:47:47.833Z,64.60
2022-11-08T06:50:22.715Z,64.90
2022-11-08T06:53:07.451Z,64.70
2022-11-08T06:55:42.551Z,64.50
2022-11-08T06:58:17.731Z,64.60
2022-11-08T07:00:52.834Z,64.40
2022-11-08T07:03:27.893Z,64.10
2022-11-08T07:06:05.718Z,64.00
2022-11-08T07:08:40.709Z,63.70
2022-11-08T07:11:16.739Z,63.50
2022-11-08T07:13:51.897Z,63.40
2022-11-08T07:16:26.843Z,63.20
2022-11-08T07:19:01.770Z,62.90
2022-11-08T07:21:36.678Z,63.30
2022-11-08T07:24:11.779Z,62.80
2022-11-08T07:26:46.773Z,62.80
2022-11-08T07:29:21.696Z,62.60
2022-11-08T07:31:56.595Z,62.70
2022-11-08T07:34:32.192Z,62.50
2022-11-08T07:37:07.098Z,62.30
2022-11-08T07:39:42.022Z,62.10
2022-11-08T07:42:16.927Z,61.80
2022-11-08T07:44:53.910Z,61.40
2022-11-08T07:47:29.862Z,60.80
2022-11-08T07:50:05.871Z,61.10
2022-11-08T07:52:40.728Z,60.70
2022-11-08T07:55:15.660Z,60.40
2022-11-08T07:57:50.674Z,60.30
2022-11-08T08:00:25.613Z,60.10
2022-11-08T08:03:03.539Z,59.90
2022-11-08T08:05:42.795Z,59.90
2022-11-08T08:08:17.826Z,60.10
2022-11-08T08:10:58.439Z,59.80
2022-11-08T08:13:33.394Z,59.70
2022-11-08T08:16:08.823Z,60.00
2022-11-08T08:18:43.732Z,59.80
2022-11-08T08:21:18.687Z,59.70
2022-11-08T08:23:53.689Z,59.20
2022-11-08T08:26:28.636Z,58.50
2022-11-08T08:29:03.857Z,58.40
2022-11-08T08:31:38.867Z,56.20
2022-11-08T08:34:15.609Z,55.30
2022-11-08T08:36:50.482Z,55.00
2022-11-08T08:39:25.424Z,54.40
2022-11-08T08:42:00.419Z,53.40
2022-11-08T08:44:35.433Z,52.30
2022-11-08T08:47:10.338Z,51.70
2022-11-08T08:49:45.275Z,50.50
2022-11-08T08:52:21.254Z,49.70
2022-11-08T08:54:56.336Z,48.90
2022-11-08T08:57:31.348Z,48.30
2022-11-08T09:03:07.905Z,46.80
2022-11-08T09:05:44.094Z,46.40
2022-11-08T09:08:19.187Z,45.00
2022-11-08T09:10:55.902Z,44.50
2022-11-08T09:13:31.898Z,43.90
2022-11-08T09:16:08.041Z,43.60
2022-11-08T09:18:43.450Z,43.60
2022-11-08T09:21:18.727Z,43.40
2022-11-08T09:23:53.806Z,43.20
2022-11-08T09:26:29.818Z,43.20
2022-11-08T09:29:04.725Z,42.90
2022-11-08T09:31:39.730Z,43.00
2022-11-08T09:34:17.597Z,42.40
2022-11-08T09:36:55.955Z,42.10
2022-11-08T09:39:30.954Z,42.00
2022-11-08T09:42:46.367Z,41.70
2022-11-08T09:45:29.149Z,41.40
2022-11-08T09:48:35.526Z,41.40
2022-11-08T09:51:18.571Z,41.50
2022-11-08T09:54:00.054Z,41.20
2022-11-08T09:56:38.084Z,41.30
2022-11-08T09:59:42.680Z,41.50
2022-11-08T10:02:21.234Z,40.90
2022-11-08T10:05:05.158Z,41.00
2022-11-08T10:08:24.488Z,40.90
2022-11-08T10:11:16.571Z,40.90
2022-11-08T10:14:03.287Z,40.50
2022-11-08T10:17:21.620Z,40.00
2022-11-08T10:20:10.120Z,39.80
2022-11-08T10:23:07.220Z,39.30
2022-11-08T10:26:12.428Z,39.20
2022-11-08T10:28:56.174Z,39.00
2022-11-08T10:31:34.091Z,38.90
2022-11-08T10:34:36.538Z,38.90
2022-11-08T10:37:14.973Z,38.60
2022-11-08T10:39:58.888Z,38.60
2022-11-08T10:42:36.475Z,38.40
2022-11-08T10:45:11.487Z,38.40
2022-11-08T10:47:47.377Z,38.40
2022-11-08T10:50:41.186Z,38.40
2022-11-08T10:53:24.293Z,38.50
2022-11-08T10:56:02.462Z,38.40
2022-11-08T10:58:42.938Z,38.30
2022-11-08T11:01:22.526Z,38.10
2022-11-08T11:03:57.722Z,37.70
2022-11-08T11:06:34.617Z,37.60
2022-11-08T11:09:21.697Z,37.20
2022-11-08T11:12:07.485Z,37.30
2022-11-08T11:14:42.378Z,37.00
2022-11-08T11:17:19.538Z,37.00
2022-11-08T11:19:56.304Z,36.50
2022-11-08T11:22:34.021Z,36.30
2022-11-08T11:25:29.825Z,36.50
2022-11-08T11:28:04.959Z,36.40
2022-11-08T11:30:42.156Z,36.40
2022-11-08T11:33:27.218Z,36.50
2022-11-08T11:36:15.920Z,36.20
2022-11-08T11:39:18.835Z,36.00
2022-11-08T11:45:36.352Z,36.40
2022-11-08T11:48:28.946Z,36.10
2022-11-08T11:51:04.001Z,36.20
2022-11-08T11:53:43.534Z,35.50
2022-11-08T11:56:41.100Z,35.40
2022-11-08T11:59:31.377Z,34.70
2022-11-08T12:02:32.267Z,34.40
2022-11-08T12:05:40.917Z,35.00
2022-11-08T12:08:48.903Z,34.70
2022-11-08T12:12:03.711Z,34.30
2022-11-08T12:15:07.845Z,34.10
2022-11-08T12:18:06.674Z,34.10
2022-11-08T12:20:53.687Z,34.20
2022-11-08T12:23:40.045Z,34.20
2022-11-08T12:26:41.412Z,31.60
2022-11-08T12:29:43.886Z,32.90
2022-11-08T12:32:56.675Z,31.10
2022-11-08T12:36:03.297Z,31.50
2022-11-08T12:39:23.119Z,30.50
2022-11-08T12:42:14.383Z,31.60
2022-11-08T12:45:29.997Z,31.10
2022-11-08T12:49:11.497Z,31.40
2022-11-08T12:52:01.140Z,32.00
2022-11-08T12:54:54.216Z,31.90
2022-11-08T12:57:31.143Z,31.50
2022-11-08T13:00:18.344Z,31.10
2022-11-08T13:03:15.518Z,31.20
2022-11-08T13:06:14.940Z,31.00
2022-11-08T13:09:13.544Z,31.50
2022-11-08T13:12:22.636Z,31.90
2022-11-08T13:15:01.299Z,32.10
2022-11-08T13:17:36.300Z,32.80
2022-11-08T13:20:48.111Z,31.90
2022-11-08T13:23:30.563Z,29.90
2022-11-08T13:26:38.162Z,29.40
2022-11-08T13:29:15.992Z,29.40
2022-11-08T13:31:56.841Z,29.60
2022-11-08T13:34:46.602Z,29.10
2022-11-08T13:37:42.713Z,28.60
2022-11-08T13:40:23.710Z,27.60
2022-11-08T13:43:32.345Z,28.40
2022-11-08T13:46:28.046Z,29.40
2022-11-08T13:49:20.293Z,29.10
2022-11-08T13:52:45.752Z,29.30
2022-11-08T13:55:51.861Z,29.60
2022-11-08T13:58:45.316Z,29.90
2022-11-08T14:01:23.399Z,30.10
2022-11-08T14:04:00.205Z,30.20
2022-11-08T14:07:06.051Z,30.10
2022-11-08T14:10:01.359Z,30.80
2022-11-08T14:12:44.728Z,30.90
2022-11-08T14:15:22.711Z,30.80
2022-11-08T14:18:16.203Z,31.00
2022-11-08T14:20:52.534Z,31.30
2022-11-08T14:23:36.146Z,31.40
2022-11-08T14:26:20.714Z,31.30
2022-11-08T14:29:00.055Z,31.90
2022-11-08T14:31:35.109Z,31.80
2022-11-08T14:34:31.605Z,31.90
2022-11-08T14:37:25.620Z,31.90
2022-11-08T14:40:00.693Z,31.70
2022-11-08T14:42:36.697Z,32.60
2022-11-08T14:45:18.156Z,32.30
2022-11-08T14:48:03.598Z,32.30
2022-11-08T14:50:38.601Z,32.10
2022-11-08T14:53:22.901Z,32.20
2022-11-08T14:56:21.188Z,32.10
2022-11-08T14:58:56.417Z,32.20
2022-11-08T15:01:31.717Z,32.60
2022-11-08T15:04:35.856Z,32.60
2022-11-08T15:07:11.144Z,32.50
2022-11-08T15:09:46.622Z,32.60
2022-11-08T15:12:24.961Z,32.70
2022-11-08T15:15:01.482Z,33.10
2022-11-08T15:17:39.717Z,33.10
2022-11-08T15:20:21.333Z,33.10
2022-11-08T15:22:56.911Z,33.40
2022-11-08T15:25:34.925Z,33.50
2022-11-08T15:28:20.763Z,33.40
2022-11-08T15:30:59.959Z,33.60
2022-11-08T15:33:37.643Z,33.60
2022-11-08T15:36:17.906Z,33.70
2022-11-08T15:38:52.958Z,33.80
2022-11-08T15:42:00.175Z,33.80
2022-11-08T15:44:36.375Z,33.70
2022-11-08T15:47:42.333Z,33.90
2022-11-08T15:50:27.300Z,34.10
2022-11-08T15:53:04.439Z,34.30
2022-11-08T15:55:56.912Z,34.40
2022-11-08T15:58:36.351Z,34.30
2022-11-08T16:01:20.281Z,34.20
2022-11-08T16:03:55.279Z,34.40
2022-11-08T16:06:31.230Z,35.00
2022-11-08T16:09:06.152Z,34.60
2022-11-08T16:11:44.806Z,34.70
2022-11-08T16:14:24.324Z,34.80
2022-11-08T16:16:59.374Z,34.70
2022-11-08T16:19:35.330Z,34.70
2022-11-08T16:22:13.548Z,34.80
2022-11-08T16:24:51.762Z,34.80
2022-11-08T16:27:26.793Z,34.90
2022-11-08T16:30:01.811Z,34.90
2022-11-08T16:32:36.938Z,35.00
2022-11-08T16:35:12.955Z,35.00
2022-11-08T16:37:48.133Z,35.10
2022-11-08T16:40:25.201Z,35.00
2022-11-08T16:43:00.431Z,34.90
2022-11-08T16:46:03.166Z,34.70
2022-11-08T16:48:30.380Z,34.70
2022-11-08T16:51:18.729Z,34.70
2022-11-08T16:53:54.124Z,34.60
2022-11-08T16:56:29.075Z,34.50
2022-11-08T16:59:04.023Z,34.50
2022-11-08T17:01:40.410Z,34.40
2022-11-08T17:04:15.445Z,34.40
2022-11-08T17:06:50.472Z,34.20
2022-11-08T17:09:25.551Z,34.20
2022-11-08T17:12:00.487Z,34.30
2022-11-08T17:14:35.465Z,34.30
2022-11-08T17:17:13.031Z,34.40
2022-11-08T17:19:48.047Z,34.40
2022-11-08T17:22:23.981Z,34.60
2022-11-08T17:24:58.891Z,34.70
2022-11-08T17:27:34.376Z,34.80
2022-11-08T17:30:12.245Z,34.90
2022-11-08T17:32:47.428Z,34.90
2022-11-08T17:35:34.369Z,34.80
2022-11-08T17:38:09.355Z,34.90
2022-11-08T17:40:44.380Z,35.00
2022-11-08T17:43:20.196Z,35.20
2022-11-08T17:45:55.376Z,35.20
2022-11-08T17:48:31.542Z,35.30
2022-11-08T17:51:07.192Z,35.30
2022-11-08T17:53:43.240Z,35.30
2022-11-08T17:56:19.229Z,35.40
2022-11-08T17:58:54.147Z,35.40
2022-11-08T18:01:29.331Z,35.50
2022-11-08T18:04:04.778Z,35.60
2022-11-08T18:06:39.840Z,35.70
2022-11-08T18:09:14.928Z,35.90
2022-11-08T18:11:50.048Z,36.00
2022-11-08T18:14:29.026Z,36.10
2022-11-08T18:17:05.171Z,36.10
2022-11-08T18:19:40.247Z,36.10
2022-11-08T18:22:15.258Z,36.30
2022-11-08T18:24:50.409Z,36.30
2022-11-08T18:27:25.472Z,36.40
2022-11-08T18:30:00.583Z,36.50
2022-11-08T18:32:36.530Z,36.60
2022-11-08T18:35:11.566Z,36.60
2022-11-08T18:37:46.543Z,36.70
2022-11-08T18:40:22.010Z,36.70
2022-11-08T18:42:57.276Z,36.80
2022-11-08T18:45:32.613Z,36.70
2022-11-08T18:48:07.925Z,36.80
2022-11-08T18:50:42.849Z,36.90
2022-11-08T18:53:18.117Z,36.90
2022-11-08T18:55:53.318Z,36.90
2022-11-08T18:58:28.482Z,37.00
2022-11-08T19:01:04.258Z,37.00
2022-11-08T19:03:39.572Z,37.20
2022-11-08T19:06:14.599Z,37.20
2022-11-08T19:08:49.642Z,37.10
2022-11-08T19:11:24.647Z,37.20
2022-11-08T19:14:01.906Z,37.20
2022-11-08T19:16:37.001Z,37.20
2022-11-08T19:19:11.991Z,37.20
2022-11-08T19:21:47.051Z,37.20
2022-11-08T19:24:22.268Z,37.40
2022-11-08T19:26:58.729Z,37.20
2022-11-08T19:29:33.722Z,37.30
2022-11-08T19:32:08.749Z,37.30
2022-11-08T19:34:45.405Z,37.30
2022-11-08T19:37:21.572Z,37.20
2022-11-08T19:39:56.581Z,37.30
2022-11-08T19:42:31.588Z,37.20
2022-11-08T19:45:08.090Z,37.10
2022-11-08T19:47:43.356Z,37.10
2022-11-08T19:50:18.363Z,37.10
2022-11-08T19:52:53.402Z,37.00
2022-11-08T19:55:28.322Z,37.00
2022-11-08T19:58:04.245Z,37.00
2022-11-08T20:00:39.534Z,36.90
2022-11-08T20:03:14.447Z,36.80
2022-11-08T20:05:53.867Z,36.90
2022-11-08T20:08:28.927Z,36.70
2022-11-08T20:11:15.800Z,36.80
2022-11-08T20:13:51.532Z,36.70
2022-11-08T20:16:33.147Z,36.80
2022-11-08T20:19:15.310Z,36.60
2022-11-08T20:21:50.358Z,36.60
2022-11-08T20:24:25.320Z,36.40
2022-11-08T20:27:00.330Z,36.40
2022-11-08T20:29:35.453Z,36.40
2022-11-08T20:32:11.457Z,36.50
2022-11-08T20:34:47.099Z,36.40
2022-11-08T20:37:22.014Z,36.50
2022-11-08T20:39:56.957Z,36.50
2022-11-08T20:42:31.873Z,36.70
2022-11-08T20:45:13.554Z,36.70
2022-11-08T20:47:49.797Z,36.70
2022-11-08T20:50:24.679Z,36.70
2022-11-08T20:52:59.587Z,36.70
2022-11-08T20:55:34.517Z,37.00
2022-11-08T20:58:09.494Z,36.90
2022-11-08T21:00:58.344Z,36.90
2022-11-08T21:03:34.313Z,36.80
2022-11-08T21:06:11.443Z,36.90
2022-11-08T21:08:59.098Z,36.90
2022-11-08T21:11:35.841Z,36.90
2022-11-08T21:14:10.807Z,36.90
2022-11-08T21:17:14.545Z,37.00
2022-11-08T21:19:40.872Z,37.10
2022-11-08T21:22:15.894Z,37.20
2022-11-08T21:24:50.868Z,37.20
2022-11-08T21:27:29.592Z,37.20
2022-11-08T21:30:05.677Z,37.30
2022-11-08T21:32:40.585Z,37.50
2022-11-08T21:35:15.612Z,37.50
2022-11-08T21:37:50.964Z,37.50
2022-11-08T21:40:25.976Z,37.60
2022-11-08T21:43:02.139Z,37.50
2022-11-08T21:45:37.233Z,37.50
2022-11-08T21:48:15.352Z,37.50
2022-11-08T21:50:50.579Z,37.60
2022-11-08T21:53:25.472Z,37.70
2022-11-08T21:56:00.381Z,37.70
2022-11-08T21:58:35.279Z,37.60
2022-11-08T22:01:10.360Z,37.50
2022-11-08T22:03:46.472Z,37.60
2022-11-08T22:06:21.429Z,37.60
2022-11-08T22:08:56.559Z,38.00
2022-11-08T22:11:31.454Z,37.70
2022-11-08T22:14:07.407Z,37.80
2022-11-08T22:16:42.259Z,37.80
2022-11-08T22:19:17.110Z,37.90
2022-11-08T22:21:52.012Z,38.00
2022-11-08T22:24:26.940Z,38.10
2022-11-08T22:27:01.965Z,38.20
2022-11-08T22:29:36.834Z,38.40
2022-11-08T22:32:11.860Z,38.50
2022-11-08T22:34:46.725Z,38.60
2022-11-08T22:37:21.669Z,38.80
2022-11-08T22:39:56.535Z,38.90
2022-11-08T22:42:31.396Z,39.00
2022-11-08T22:45:06.868Z,39.00
2022-11-08T22:47:41.736Z,39.00
2022-11-08T22:50:16.785Z,39.10
2022-11-08T22:52:51.678Z,39.10
2022-11-08T22:55:26.738Z,39.00
2022-11-08T22:58:01.955Z,39.00
2022-11-08T23:00:36.970Z,39.10
2022-11-08T23:03:12.239Z,39.20
2022-11-08T23:05:55.047Z,39.30
2022-11-08T23:08:30.200Z,39.20
2022-11-08T23:11:23.876Z,39.30
2022-11-08T23:14:17.666Z,39.40
2022-11-08T23:16:52.554Z,39.40
2022-11-08T23:19:45.855Z,39.50
2022-11-08T23:22:40.031Z,39.70
2022-11-08T23:25:15.025Z,39.80
2022-11-08T23:28:08.540Z,39.90
2022-11-08T23:31:01.955Z,39.90
2022-11-08T23:33:36.842Z,39.90
2022-11-08T23:36:11.740Z,40.10
2022-11-08T23:38:46.978Z,40.10
2022-11-08T23:41:41.226Z,40.10
2022-11-08T23:44:24.892Z,40.10
2022-11-08T23:47:01.456Z,40.10
2022-11-08T23:49:36.382Z,40.20
2022-11-08T23:52:11.238Z,40.20
2022-11-08T23:54:46.130Z,40.20
2022-11-08T23:57:20.998Z,40.30
2022-11-08T23:59:55.887Z,40.40
